Ana Sayfa
METAR-TAF:

METAR-TAF

Havaalanları :

Sari Deşt-i Naz Havaalanı

Sari, İran

Enlem: 36-38-09N, Boylam: 53-11-37E, yükseklik: 11 m

Güncel hava durumu gözlemi

Rapor saat 04:00 UTC de 29 dakika önce yapıldı.
Rüzgar kuzey/kuzeydoğudan 4 kt
Sıcaklık 13°C
Nem 94%
Basınç 1014 hPa
Görüş mesafesi: 4000 m
1500 ft yükseklikte parçalı çok bulutlu
8000 ft yükseklikte çok bulutlu
yağmur

METAR: OINZ 190400Z 02004KT 4000 RA BKN015 OVC080 13/12 Q1014

Saat: 08:59 (04:29 UTC)


TAF: eksik

4.000'den fazla havaalanı için hava durumu gözlemleri ve tahminleri (METAR ve TAF raporları).

Kullanılabilir istasyonlar harita üzerinde sarı ve kırmızı noktalarla gösterilir.

İstasyonun adını görmek için fareyi noktanın üzerinde gezdirin.

Sonrasında hava gözlem ve tahminlerini görmek için tıklayın.

Haritayı değiştirmek için: yaklaştırmak için siyah artı işaretli yeşil düğmeye ve uzaklaştırmak için de eksi işaretli düğmeye hızla tıklayın; bitişik haritalar için yeşil okları kullanın.


METAR-TAF: